Aviation Digital Data Service (ADDS)

Output produced by METARs form (0424 UTC 08 July 2015)
found at http://aviationweather.gov/adds/metars/
 
KLYH 072324Z 0800/0824 21008KT P6SM SCT050 
     FM080900 VRB03KT 4SM BR SCT001 
     FM081300 23007KT P6SM FEW040 SCT120 
     FM081900 24009KT P6SM VCTS BKN060CB